Flughafen Düsseldorf

Aus VATSIM Germany
Dies ist die bestätigte sowie die neueste Version dieser Seite.
Wechseln zu:Navigation, Suche
UnderCon icon.svg.pngDieser Artikel ist noch im Aufbau. Der Artikel kann daher unvollständig sein oder Fehler enthalten!


Düsseldorf
ICAO / IATA EDDL / DUS
Koordinaten N51°17′22″  E006°46′0″
Höhe 45 m / 147 ft
Wetter EDDL 190520Z 15013KT 4000 -RADZ BKN005 BKN015 12/11 Q1018 TEMPO RADZ
Pisten
Platzfrequenzen
Nur für Flugsimulationszwecke!

.


Informationen für Piloten und Lotsen
Pilotenbriefing

Standard Operating Procedures (SOP)

Letters of Agreement (LoAs)

Airport Charts


Vorlage:Navigationsleiste Flughäfen EDLL